Time;durP1;ratioP1;P1;durP2;ratioP2;P2;SDS_P1;SDS_P2;PMS_P1;PMS_P2;Temp;Humidity;BMP_temperature;BMP_pressure;BME280_temperature;BME280_humidity;BME280_pressure;Samples;Min_cycle;Max_cycle;Signal;HPM_P1;HPM_P2
2022/10/02 00:00:37;;;;;;;4.03;2.40;;;13.50;94.70;;;;;;5053110;28;21239;-71
2022/10/02 00:03:16;;;;;;;15.23;3.20;;;13.50;94.60;;;;;;5051064;28;20462;-71
2022/10/02 00:05:46;;;;;;;6.83;2.60;;;13.50;94.60;;;;;;5052995;28;20415;-72
2022/10/02 00:08:25;;;;;;;7.37;2.77;;;13.60;94.60;;;;;;5055798;28;20486;-71
2022/10/02 00:11:10;;;;;;;9.97;2.70;;;13.60;94.30;;;;;;5048490;28;20422;-71
2022/10/02 00:13:38;;;;;;;8.40;2.63;;;13.60;94.20;;;;;;5049204;28;20481;-72
2022/10/02 00:16:09;;;;;;;5.70;2.57;;;13.70;94.00;;;;;;5045956;28;20415;-71
2022/10/02 00:18:36;;;;;;;4.53;2.30;;;13.70;94.00;;;;;;5052074;28;20419;-70
2022/10/02 00:21:26;;;;;;;11.30;2.60;;;13.70;94.10;;;;;;5048325;28;20416;-72
2022/10/02 00:23:57;;;;;;;9.20;2.90;;;13.70;94.20;;;;;;5046136;28;20477;-71
2022/10/02 00:26:35;;;;;;;6.57;3.50;;;13.60;94.60;;;;;;5052972;28;20423;-69
2022/10/02 00:29:32;;;;;;;12.67;3.63;;;13.50;94.90;;;;;;5052464;28;20423;-72
2022/10/02 00:32:36;;;;;;;5.57;2.83;;;13.40;95.40;;;;;;5044128;28;20450;-70
2022/10/02 00:35:28;;;;;;;5.43;2.47;;;13.30;95.80;;;;;;5052635;28;20435;-71
2022/10/02 00:38:41;;;;;;;6.57;3.20;;;13.30;96.10;;;;;;5048975;28;20469;-71
2022/10/02 00:41:38;;;;;;;8.80;2.63;;;13.40;96.20;;;;;;5050351;28;20456;-70
2022/10/02 00:44:28;;;;;;;11.00;3.00;;;13.40;96.10;;;;;;5049152;28;20554;-70
2022/10/02 00:47:19;;;;;;;5.20;2.80;;;13.40;96.00;;;;;;5048296;28;20411;-70
2022/10/02 00:50:16;;;;;;;8.50;3.10;;;13.40;96.00;;;;;;5046717;28;20902;-71
2022/10/02 00:52:59;;;;;;;12.90;3.07;;;13.40;96.10;;;;;;5011353;28;20483;-71
2022/10/02 00:55:49;;;;;;;9.97;2.67;;;13.40;96.10;;;;;;5046476;28;20442;-69
2022/10/02 00:58:29;;;;;;;7.57;3.53;;;13.40;96.10;;;;;;5047044;28;20785;-71
2022/10/02 01:01:08;;;;;;;4.23;2.50;;;13.40;96.10;;;;;;5051257;28;20415;-71
2022/10/02 01:03:39;;;;;;;3.90;2.30;;;13.40;95.90;;;;;;5048403;28;20466;-71
2022/10/02 01:06:07;;;;;;;7.80;2.47;;;13.50;95.80;;;;;;5051705;28;20458;-71
2022/10/02 01:08:37;;;;;;;5.17;2.70;;;13.50;95.70;;;;;;5051246;28;20427;-70
2022/10/02 01:11:04;;;;;;;8.80;2.70;;;13.50;95.80;;;;;;5051410;28;20423;-70
2022/10/02 01:13:31;;;;;;;5.80;2.80;;;13.50;95.90;;;;;;5048358;28;20490;-71
2022/10/02 01:16:01;;;;;;;7.50;2.93;;;13.50;95.90;;;;;;5052835;28;20431;-69
2022/10/02 01:18:29;;;;;;;6.40;2.83;;;13.50;95.90;;;;;;5051806;28;20415;-73
2022/10/02 01:21:04;;;;;;;8.37;2.83;;;13.50;95.90;;;;;;5051624;28;20415;-69
2022/10/02 01:23:46;;;;;;;7.03;2.77;;;13.50;95.80;;;;;;5045037;28;20942;-71
2022/10/02 01:26:11;;;;;;;6.23;2.50;;;13.50;95.90;;;;;;5048189;28;20828;-70
2022/10/02 01:28:38;;;;;;;8.63;2.93;;;13.50;95.90;;;;;;5046363;28;20415;-71
2022/10/02 01:31:09;;;;;;;5.50;2.67;;;13.60;95.80;;;;;;5047186;28;20948;-72
2022/10/02 01:33:36;;;;;;;3.37;2.20;;;13.60;95.60;;;;;;5046855;28;20481;-71
2022/10/02 01:36:03;;;;;;;8.43;3.00;;;13.60;95.70;;;;;;5044476;28;20423;-69
2022/10/02 01:38:30;;;;;;;12.20;2.50;;;13.60;95.70;;;;;;5050665;28;20411;-70
2022/10/02 01:40:55;;;;;;;4.60;2.67;;;13.60;95.70;;;;;;5049383;28;20419;-70
2022/10/02 01:43:29;;;;;;;5.33;2.13;;;13.60;95.70;;;;;;5047632;28;20461;-70
2022/10/02 01:46:21;;;;;;;4.50;2.23;;;13.60;95.60;;;;;;5051344;28;20263;-70
2022/10/02 01:49:33;;;;;;;11.23;2.80;;;13.60;95.70;;;;;;5048278;28;20997;-70
2022/10/02 01:52:26;;;;;;;7.40;2.70;;;13.60;95.60;;;;;;5040291;28;20518;-71
2022/10/02 01:55:05;;;;;;;8.60;2.80;;;13.70;95.60;;;;;;5050818;28;20752;-70
2022/10/02 01:57:48;;;;;;;13.13;3.13;;;13.60;95.70;;;;;;5048171;28;20439;-71
2022/10/02 02:00:19;;;;;;;6.20;2.43;;;13.60;95.90;;;;;;5046685;28;20474;-71
2022/10/02 02:03:20;;;;;;;4.30;2.90;;;13.60;95.90;;;;;;5046210;28;20981;-71
2022/10/02 02:06:16;;;;;;;4.10;2.40;;;13.60;95.90;;;;;;5063989;28;20907;-71
2022/10/02 02:08:47;;;;;;;8.03;2.63;;;13.60;96.00;;;;;;5049136;28;20457;-70
2022/10/02 02:11:18;;;;;;;9.77;2.90;;;13.60;96.00;;;;;;5046555;28;21053;-70
2022/10/02 02:14:00;;;;;;;4.77;2.80;;;13.60;95.90;;;;;;5044331;28;20471;-70
2022/10/02 02:16:43;;;;;;;9.13;2.80;;;13.70;95.80;;;;;;5045699;28;20448;-70
2022/10/02 02:19:33;;;;;;;8.13;2.60;;;13.70;95.60;;;;;;5043898;28;20411;-72
2022/10/02 02:22:14;;;;;;;5.30;2.37;;;13.70;95.50;;;;;;5049030;28;20423;-71
2022/10/02 02:24:45;;;;;;;6.87;2.43;;;13.80;95.10;;;;;;5047692;28;20445;-72
2022/10/02 02:27:18;;;;;;;7.33;2.50;;;13.80;95.00;;;;;;5045928;28;20421;-72
2022/10/02 02:29:48;;;;;;;5.47;2.50;;;13.80;95.10;;;;;;5047987;28;20407;-70
2022/10/02 02:32:18;;;;;;;5.30;2.50;;;13.80;95.10;;;;;;5049476;28;20478;-70
2022/10/02 02:34:52;;;;;;;5.87;3.07;;;13.80;95.00;;;;;;5050251;28;20420;-70
2022/10/02 02:37:22;;;;;;;5.60;2.37;;;13.90;94.90;;;;;;5049350;28;20414;-71
2022/10/02 02:40:00;;;;;;;6.30;2.40;;;13.90;94.90;;;;;;5048834;28;20419;-71
2022/10/02 02:42:30;;;;;;;11.83;2.70;;;13.90;95.00;;;;;;5047083;28;20505;-71
2022/10/02 02:45:20;;;;;;;5.90;2.43;;;13.80;95.00;;;;;;5055141;28;20423;-71
2022/10/02 02:47:48;;;;;;;8.37;2.70;;;13.80;95.10;;;;;;5052948;28;20499;-70
2022/10/02 02:50:28;;;;;;;7.10;2.70;;;13.80;95.00;;;;;;5050012;28;20423;-71
2022/10/02 02:53:02;;;;;;;8.93;2.47;;;13.80;94.90;;;;;;5046426;28;20910;-71
2022/10/02 02:55:34;;;;;;;5.80;2.40;;;13.80;94.80;;;;;;5053608;28;20993;-70
2022/10/02 02:58:09;;;;;;;7.40;3.17;;;13.90;94.60;;;;;;5050895;28;20495;-69
2022/10/02 03:00:35;;;;;;;6.47;3.00;;;14.00;94.40;;;;;;5048160;28;20465;-70
2022/10/02 03:03:00;;;;;;;8.23;2.70;;;14.00;94.20;;;;;;5045802;28;20509;-70
2022/10/02 03:05:27;;;;;;;6.57;3.00;;;14.00;94.20;;;;;;5047509;28;20430;-71
2022/10/02 03:08:10;;;;;;;5.90;2.30;;;14.00;94.20;;;;;;5051426;28;20188;-69
2022/10/02 03:11:04;;;;;;;9.57;2.70;;;14.00;94.30;;;;;;5043975;28;20498;-70
2022/10/02 03:14:01;;;;;;;8.70;2.60;;;14.00;94.30;;;;;;5047656;28;20532;-70
2022/10/02 03:16:45;;;;;;;4.47;2.87;;;14.00;94.30;;;;;;5047541;28;20462;-71
2022/10/02 03:19:29;;;;;;;14.27;3.50;;;14.00;94.30;;;;;;5041104;28;20851;-71
2022/10/02 03:22:09;;;;;;;7.40;2.90;;;14.00;94.20;;;;;;5048830;28;20412;-71
2022/10/02 03:24:44;;;;;;;8.60;3.13;;;14.00;94.30;;;;;;5049127;28;20450;-70
2022/10/02 03:27:40;;;;;;;9.23;2.70;;;14.00;94.40;;;;;;5049698;28;20411;-69
2022/10/02 03:30:08;;;;;;;5.77;2.60;;;14.00;94.40;;;;;;4981782;28;20955;-70
2022/10/02 03:32:37;;;;;;;4.83;3.00;;;14.00;94.40;;;;;;4991149;28;20488;-69
2022/10/02 03:35:05;;;;;;;4.20;2.20;;;14.10;94.40;;;;;;4994005;28;20509;-69
2022/10/02 03:37:32;;;;;;;6.77;2.70;;;14.20;94.30;;;;;;4996328;28;20931;-71
2022/10/02 03:39:59;;;;;;;9.20;2.60;;;14.10;94.30;;;;;;4993377;28;20612;-70
2022/10/02 03:42:28;;;;;;;8.83;3.23;;;14.10;94.40;;;;;;4991685;28;20460;-72
2022/10/02 03:44:54;;;;;;;5.83;2.97;;;14.00;94.50;;;;;;4998698;28;20433;-71
2022/10/02 03:47:19;;;;;;;7.50;3.47;;;14.00;94.70;;;;;;4994823;28;20421;-70
2022/10/02 03:49:45;;;;;;;11.23;3.27;;;14.00;94.80;;;;;;4994804;28;20631;-71
2022/10/02 03:52:16;;;;;;;5.30;2.70;;;13.90;95.00;;;;;;5005421;28;20210;-70
2022/10/02 03:54:43;;;;;;;8.40;2.80;;;13.80;95.10;;;;;;4991704;28;20198;-70
2022/10/02 03:57:14;;;;;;;5.67;2.90;;;13.70;95.50;;;;;;4996718;28;20907;-70
2022/10/02 03:59:47;;;;;;;14.93;3.13;;;13.70;95.50;;;;;;4994550;28;20558;-71
2022/10/02 04:02:32;;;;;;;8.13;2.70;;;13.70;95.30;;;;;;4999476;28;20417;-71
2022/10/02 04:05:48;;;;;;;3.77;2.47;;;13.80;95.20;;;;;;4994714;28;20485;-70
2022/10/02 04:08:21;;;;;;;10.30;2.80;;;13.90;95.10;;;;;;4988080;28;20428;-71
2022/10/02 04:10:52;;;;;;;13.13;3.50;;;13.80;95.20;;;;;;4991394;28;20460;-71
2022/10/02 04:13:27;;;;;;;6.80;3.07;;;13.80;95.10;;;;;;4986047;28;20485;-70
2022/10/02 04:16:15;;;;;;;8.20;3.37;;;13.80;95.20;;;;;;4991894;28;20425;-71
2022/10/02 04:18:52;;;;;;;8.93;3.70;;;13.80;95.40;;;;;;4991066;28;20422;-71
2022/10/02 04:21:41;;;;;;;4.03;2.67;;;13.80;95.50;;;;;;4976397;28;21174;-72
2022/10/02 04:24:28;;;;;;;6.57;3.53;;;13.70;95.70;;;;;;4991131;28;20453;-70
2022/10/02 04:27:28;;;;;;;6.03;2.57;;;13.70;95.80;;;;;;4989270;28;20422;-71
2022/10/02 04:30:01;;;;;;;8.37;3.13;;;13.60;95.80;;;;;;4986289;28;20513;-70
2022/10/02 04:32:35;;;;;;;5.97;2.87;;;13.60;95.80;;;;;;4985747;28;20496;-71
2022/10/02 04:35:04;;;;;;;7.03;2.70;;;13.60;95.20;;;;;;4987208;28;20440;-70
2022/10/02 04:37:37;;;;;;;12.73;2.80;;;13.70;94.80;;;;;;4992685;28;20550;-71
2022/10/02 04:40:24;;;;;;;8.00;2.80;;;13.80;94.50;;;;;;4992194;28;20509;-70
2022/10/02 04:43:04;;;;;;;6.73;2.40;;;13.80;94.30;;;;;;4995619;28;20484;-70
2022/10/02 04:45:39;;;;;;;6.13;2.27;;;13.90;94.00;;;;;;5053345;28;20422;-70
2022/10/02 04:48:25;;;;;;;12.10;2.27;;;13.80;93.70;;;;;;5053735;28;20414;-70
2022/10/02 04:51:16;;;;;;;6.70;3.03;;;13.90;93.50;;;;;;5052514;28;20447;-70
2022/10/02 04:53:59;;;;;;;8.20;2.00;;;13.90;93.50;;;;;;5052909;28;21044;-71
2022/10/02 04:56:28;;;;;;;6.47;2.67;;;13.90;93.30;;;;;;5054615;28;20903;-70
2022/10/02 04:59:12;;;;;;;6.53;2.43;;;14.00;93.20;;;;;;5054812;28;20407;-71
2022/10/02 05:01:56;;;;;;;11.93;2.47;;;14.00;93.00;;;;;;5054601;28;20469;-71
2022/10/02 05:04:35;;;;;;;7.10;3.10;;;14.00;92.80;;;;;;5055052;28;20958;-70
2022/10/02 05:07:28;;;;;;;9.70;2.67;;;14.00;92.80;;;;;;5055336;28;20411;-71
2022/10/02 05:10:21;;;;;;;6.30;2.40;;;14.10;92.80;;;;;;5056164;28;20407;-70
2022/10/02 05:12:46;;;;;;;6.60;2.13;;;14.10;92.80;;;;;;5055063;28;20501;-70
2022/10/02 05:15:18;;;;;;;7.23;2.43;;;14.10;93.00;;;;;;5054531;28;20432;-71
2022/10/02 05:17:55;;;;;;;11.73;2.90;;;14.10;93.00;;;;;;5054903;28;20209;-70
2022/10/02 05:20:46;;;;;;;6.00;3.53;;;14.10;93.10;;;;;;5049578;28;20430;-70
2022/10/02 05:23:22;;;;;;;8.07;3.40;;;14.00;93.20;;;;;;5042299;28;20470;-70
2022/10/02 05:25:56;;;;;;;10.00;3.37;;;14.00;93.50;;;;;;5052751;28;20915;-71
2022/10/02 05:28:41;;;;;;;7.17;3.50;;;14.00;93.60;;;;;;5050235;28;20788;-71
2022/10/02 05:31:29;;;;;;;8.83;3.20;;;14.00;93.70;;;;;;5048728;28;20416;-71
2022/10/02 05:34:01;;;;;;;7.47;3.27;;;14.10;93.70;;;;;;5046085;28;20593;-71
2022/10/02 05:37:13;;;;;;;5.87;3.00;;;14.10;93.70;;;;;;5039065;28;20438;-71
2022/10/02 05:39:52;;;;;;;9.00;3.10;;;14.10;93.70;;;;;;5041259;28;20433;-71
2022/10/02 05:42:28;;;;;;;7.13;3.40;;;14.00;93.80;;;;;;5051211;28;20446;-70
2022/10/02 05:45:04;;;;;;;11.27;3.80;;;14.00;94.00;;;;;;5046449;28;20415;-71
2022/10/02 05:47:36;;;;;;;15.77;3.83;;;14.00;94.20;;;;;;5053287;28;20415;-71
2022/10/02 05:50:11;;;;;;;4.70;3.23;;;14.10;94.20;;;;;;5053399;28;20404;-72
2022/10/02 05:52:56;;;;;;;6.43;3.00;;;14.10;94.10;;;;;;5051448;28;20593;-71
2022/10/02 05:55:28;;;;;;;13.00;4.03;;;14.00;94.20;;;;;;5054062;28;20419;-71
2022/10/02 05:58:05;;;;;;;5.93;3.40;;;14.10;94.30;;;;;;5054176;28;20419;-71
2022/10/02 06:00:44;;;;;;;8.43;2.53;;;14.10;94.30;;;;;;5052861;28;20427;-72
2022/10/02 06:03:40;;;;;;;7.63;2.60;;;14.00;94.50;;;;;;5052232;28;20459;-71
2022/10/02 06:06:10;;;;;;;7.23;2.60;;;14.00;94.50;;;;;;5049784;28;20946;-71
2022/10/02 06:08:41;;;;;;;5.03;2.80;;;13.90;94.50;;;;;;5051102;28;20423;-70
2022/10/02 06:11:20;;;;;;;7.50;3.30;;;13.90;94.90;;;;;;5051650;28;20420;-70
2022/10/02 06:13:48;;;;;;;9.40;3.33;;;13.90;95.10;;;;;;5043768;28;20529;-74
2022/10/02 06:16:31;;;;;;;6.87;3.00;;;14.00;95.30;;;;;;5046665;28;20472;-71
2022/10/02 06:19:06;;;;;;;7.53;4.03;;;14.00;95.20;;;;;;5054726;28;20439;-72
2022/10/02 06:21:42;;;;;;;7.57;3.23;;;13.90;95.20;;;;;;5046169;28;20422;-72
2022/10/02 06:24:16;;;;;;;7.10;3.37;;;13.80;95.30;;;;;;5044214;28;20521;-70
2022/10/02 06:27:09;;;;;;;7.30;3.50;;;13.80;95.60;;;;;;5047329;28;20435;-72
2022/10/02 06:30:03;;;;;;;15.80;4.40;;;13.80;95.70;;;;;;5046344;28;20440;-74
2022/10/02 06:32:32;;;;;;;7.47;4.40;;;13.70;95.90;;;;;;5045188;28;21005;-73
2022/10/02 06:34:57;;;;;;;10.93;3.80;;;13.80;96.20;;;;;;5048165;28;20485;-73
2022/10/02 06:37:46;;;;;;;10.00;3.37;;;13.70;96.20;;;;;;5048019;28;21006;-72
2022/10/02 06:40:35;;;;;;;11.40;4.80;;;13.80;96.50;;;;;;5044834;28;20176;-73
2022/10/02 06:43:04;;;;;;;8.10;4.00;;;13.80;96.40;;;;;;5056298;28;20472;-74
2022/10/02 06:45:37;;;;;;;7.60;3.00;;;13.80;96.20;;;;;;5047633;28;20441;-73
2022/10/02 06:48:24;;;;;;;7.93;3.40;;;13.70;96.30;;;;;;5047645;28;20415;-74
2022/10/02 06:51:15;;;;;;;9.07;3.93;;;13.70;96.60;;;;;;5061827;28;20423;-73
2022/10/02 06:54:03;;;;;;;11.33;5.47;;;13.60;96.70;;;;;;5044243;28;20506;-72
2022/10/02 06:56:36;;;;;;;14.37;4.20;;;13.60;96.90;;;;;;5047651;28;20422;-73
2022/10/02 06:59:26;;;;;;;16.80;5.90;;;13.50;97.40;;;;;;5047861;28;20422;-73
2022/10/02 07:02:03;;;;;;;21.67;12.13;;;13.40;97.70;;;;;;5043199;28;20912;-73
2022/10/02 07:05:06;;;;;;;17.03;8.43;;;13.50;97.90;;;;;;5052129;28;20450;-74
2022/10/02 07:07:44;;;;;;;8.43;3.47;;;13.50;98.10;;;;;;5053615;28;20438;-73
2022/10/02 07:10:13;;;;;;;6.83;3.63;;;13.60;98.10;;;;;;5056509;28;20510;-74
2022/10/02 07:13:03;;;;;;;7.70;3.20;;;13.80;98.00;;;;;;5053052;28;20483;-74
2022/10/02 07:15:40;;;;;;;6.53;3.53;;;13.90;98.00;;;;;;5050742;28;20943;-74
2022/10/02 07:18:27;;;;;;;14.30;3.70;;;13.90;97.80;;;;;;5044066;28;20421;-73
2022/10/02 07:21:12;;;;;;;6.70;4.13;;;13.90;97.70;;;;;;5045966;28;20792;-73
2022/10/02 07:23:41;;;;;;;8.83;3.50;;;14.00;97.70;;;;;;5046823;28;20528;-74
2022/10/02 07:26:28;;;;;;;6.73;3.20;;;14.10;97.50;;;;;;5051118;28;20426;-74
2022/10/02 07:29:01;;;;;;;7.43;4.20;;;14.10;97.30;;;;;;5045015;28;20427;-74
2022/10/02 07:31:45;;;;;;;8.40;3.50;;;14.10;97.20;;;;;;5050716;28;20516;-73
2022/10/02 07:34:31;;;;;;;10.87;4.73;;;14.10;97.10;;;;;;5049757;28;20539;-72
2022/10/02 07:37:18;;;;;;;13.93;5.40;;;14.00;97.00;;;;;;5045944;28;20525;-73
2022/10/02 07:40:01;;;;;;;7.33;4.33;;;13.80;96.90;;;;;;5050039;28;20422;-73
2022/10/02 07:42:53;;;;;;;12.63;5.20;;;13.90;97.20;;;;;;5049088;28;20462;-74
2022/10/02 07:45:40;;;;;;;8.27;4.30;;;13.90;97.20;;;;;;5046247;28;20466;-73
2022/10/02 07:48:53;;;;;;;8.70;4.47;;;13.80;97.20;;;;;;5047130;28;20980;-73
2022/10/02 07:51:54;;;;;;;11.60;5.60;;;13.80;97.30;;;;;;5034672;28;20508;-72
2022/10/02 07:54:31;;;;;;;26.07;14.33;;;13.80;97.30;;;;;;4971068;28;20501;-74
2022/10/02 07:57:19;;;;;;;24.37;12.60;;;13.80;97.40;;;;;;4974083;28;20847;-74
2022/10/02 07:59:47;;;;;;;14.13;6.50;;;13.90;97.50;;;;;;4970373;28;20446;-75
2022/10/02 08:02:33;;;;;;;16.90;5.87;;;13.90;97.40;;;;;;4978814;28;20441;-74
2022/10/02 08:05:02;;;;;;;16.73;6.30;;;13.80;97.30;;;;;;4969310;28;20474;-73
2022/10/02 08:07:28;;;;;;;7.13;4.70;;;13.80;97.30;;;;;;4978092;28;20426;-76
2022/10/02 08:09:57;;;;;;;11.97;6.53;;;13.90;97.50;;;;;;4977364;28;20443;-73
2022/10/02 08:12:46;;;;;;;13.97;6.40;;;14.00;97.60;;;;;;4959834;28;20478;-76
2022/10/02 08:15:16;;;;;;;14.20;6.97;;;14.00;97.40;;;;;;4965210;28;20432;-73
2022/10/02 08:17:54;;;;;;;18.70;7.00;;;13.90;97.30;;;;;;4977109;28;20478;-72
2022/10/02 08:20:24;;;;;;;16.40;7.13;;;13.90;97.40;;;;;;4974413;28;20426;-74
2022/10/02 08:23:13;;;;;;;12.07;6.60;;;13.90;97.50;;;;;;4968672;28;21022;-75
2022/10/02 08:25:49;;;;;;;14.77;6.23;;;13.90;97.70;;;;;;4976597;28;20434;-74
2022/10/02 08:28:30;;;;;;;12.00;5.40;;;14.00;97.70;;;;;;4965542;28;20430;-73
2022/10/02 08:30:57;;;;;;;15.07;5.33;;;14.10;97.80;;;;;;5019983;28;20529;-74
2022/10/02 08:33:23;;;;;;;11.87;5.27;;;14.40;97.90;;;;;;5048621;28;20478;-73
2022/10/02 08:36:00;;;;;;;9.10;6.37;;;14.70;97.90;;;;;;5046238;28;20895;-73
2022/10/02 08:38:35;;;;;;;13.47;5.97;;;15.00;97.70;;;;;;5048104;28;20181;-73
2022/10/02 08:41:22;;;;;;;13.90;6.50;;;15.00;96.80;;;;;;5048928;28;20428;-74
2022/10/02 08:44:22;;;;;;;11.00;6.30;;;14.80;95.40;;;;;;5047095;28;20554;-74
2022/10/02 08:47:27;;;;;;;15.33;6.40;;;14.90;95.40;;;;;;5027194;28;20645;-74
2022/10/02 08:50:31;;;;;;;9.00;5.53;;;14.90;95.00;;;;;;5041538;28;20459;-72
2022/10/02 08:53:30;;;;;;;12.70;5.97;;;15.00;94.50;;;;;;5039271;28;21033;-73
2022/10/02 08:56:23;;;;;;;8.73;5.37;;;15.10;94.30;;;;;;5046877;28;20437;-73
2022/10/02 08:59:04;;;;;;;9.60;5.57;;;15.10;94.20;;;;;;5048235;28;20435;-74
2022/10/02 09:01:59;;;;;;;12.97;5.07;;;15.20;94.20;;;;;;5050041;28;20427;-73
2022/10/02 09:04:27;;;;;;;9.33;5.10;;;15.10;93.60;;;;;;5047709;28;20449;-75
2022/10/02 09:07:14;;;;;;;11.80;5.70;;;15.20;93.40;;;;;;5048028;28;20424;-73
2022/10/02 09:09:52;;;;;;;12.07;4.60;;;15.20;93.30;;;;;;5058896;28;20510;-75
2022/10/02 09:12:37;;;;;;;9.37;4.50;;;15.20;93.40;;;;;;5047107;28;20429;-73
2022/10/02 09:15:15;;;;;;;17.93;4.87;;;15.40;93.50;;;;;;5044455;28;20420;-75
2022/10/02 09:17:44;;;;;;;14.07;4.80;;;15.40;93.30;;;;;;5048926;28;21143;-71
2022/10/02 09:20:28;;;;;;;8.60;4.33;;;15.30;93.10;;;;;;5044916;28;20427;-72
2022/10/02 09:23:06;;;;;;;6.17;3.43;;;15.30;93.20;;;;;;5042091;28;20468;-72
2022/10/02 09:25:36;;;;;;;15.20;4.83;;;15.40;93.30;;;;;;5042361;28;20429;-72
2022/10/02 09:28:23;;;;;;;9.10;5.17;;;15.50;93.40;;;;;;5047849;28;20426;-73
2022/10/02 09:31:07;;;;;;;13.90;5.20;;;15.50;93.10;;;;;;5042007;28;20768;-72
2022/10/02 09:33:44;;;;;;;12.77;4.80;;;15.40;93.10;;;;;;5044989;28;20509;-73
2022/10/02 09:36:25;;;;;;;11.93;4.50;;;15.50;93.40;;;;;;5043758;28;20422;-70
2022/10/02 09:39:15;;;;;;;10.70;5.27;;;15.50;93.20;;;;;;5045019;28;20425;-72
2022/10/02 09:42:19;;;;;;;18.43;5.97;;;15.50;93.30;;;;;;5045014;28;20438;-71
2022/10/02 09:45:04;;;;;;;10.30;4.87;;;15.30;93.60;;;;;;5044960;28;20469;-71
2022/10/02 09:47:52;;;;;;;11.53;4.90;;;15.30;94.30;;;;;;5046641;28;20447;-71
2022/10/02 09:50:49;;;;;;;9.00;5.03;;;15.00;94.00;;;;;;5041622;28;20627;-74
2022/10/02 09:53:55;;;;;;;14.80;4.93;;;14.80;95.20;;;;;;5041697;28;20555;-71
2022/10/02 09:56:52;;;;;;;11.40;5.47;;;14.80;95.40;;;;;;5044825;28;20488;-73
2022/10/02 09:59:51;;;;;;;16.40;6.47;;;14.50;95.60;;;;;;5045171;28;20631;-71
2022/10/02 10:02:48;;;;;;;10.70;5.30;;;14.50;96.00;;;;;;5043159;28;20683;-72
2022/10/02 10:05:38;;;;;;;12.97;5.73;;;14.60;96.10;;;;;;5046760;28;20513;-71
2022/10/02 10:08:29;;;;;;;14.33;5.07;;;14.40;96.20;;;;;;5052634;28;20515;-72
2022/10/02 10:11:21;;;;;;;48.23;24.20;;;14.40;96.50;;;;;;5046462;28;20446;-73
2022/10/02 10:14:01;;;;;;;9.77;5.20;;;14.40;96.60;;;;;;5044547;28;20479;-73
2022/10/02 10:17:04;;;;;;;10.97;5.03;;;14.20;96.90;;;;;;5046721;28;20428;-73
2022/10/02 10:19:51;;;;;;;10.50;5.73;;;14.10;97.30;;;;;;5043113;28;20781;-72
2022/10/02 10:22:30;;;;;;;12.13;5.33;;;14.20;97.60;;;;;;5044738;28;20545;-71
2022/10/02 10:25:48;;;;;;;9.50;5.00;;;14.20;97.50;;;;;;5046232;28;21248;-72
2022/10/02 10:28:50;;;;;;;7.30;5.50;;;14.20;97.40;;;;;;5030431;28;20438;-71
2022/10/02 10:31:49;;;;;;;9.80;5.33;;;14.20;97.60;;;;;;5040765;28;20585;-72
2022/10/02 10:34:30;;;;;;;7.77;5.43;;;14.10;97.60;;;;;;5045980;28;20506;-72
2022/10/02 10:39:53;;;;;;;6.30;4.90;;;14.50;98.00;;;;;;5046060;28;20419;-71
2022/10/02 10:42:23;;;;;;;6.10;4.23;;;14.70;97.60;;;;;;5044482;28;20977;-72
2022/10/02 10:45:21;;;;;;;5.90;3.73;;;14.80;97.30;;;;;;5043458;28;20511;-71
2022/10/02 10:48:18;;;;;;;13.43;8.10;;;14.80;96.90;;;;;;5044494;28;20427;-72
2022/10/02 10:51:15;;;;;;;8.40;4.13;;;14.80;96.50;;;;;;5041463;28;20867;-71
2022/10/02 10:53:40;;;;;;;7.83;4.27;;;14.50;96.00;;;;;;5042424;28;20479;-72
2022/10/02 10:56:35;;;;;;;5.77;3.80;;;14.20;96.60;;;;;;5041352;28;20939;-72
2022/10/02 10:59:32;;;;;;;9.43;3.90;;;14.00;97.20;;;;;;5049515;28;20180;-71
2022/10/02 11:02:35;;;;;;;4.80;3.33;;;14.10;97.80;;;;;;5044504;28;20422;-73
2022/10/02 11:05:38;;;;;;;4.30;3.37;;;14.10;97.70;;;;;;5045687;28;20437;-72
2022/10/02 11:08:25;;;;;;;4.37;2.47;;;14.00;97.60;;;;;;5043598;28;20455;-73
2022/10/02 11:11:01;;;;;;;5.70;2.90;;;14.00;97.60;;;;;;5048011;28;20429;-73
2022/10/02 11:14:02;;;;;;;6.27;2.83;;;14.10;97.40;;;;;;5047665;28;20482;-70
2022/10/02 11:16:54;;;;;;;2.80;2.70;;;14.10;97.20;;;;;;5044457;28;20423;-73
2022/10/02 11:19:39;;;;;;;3.60;2.90;;;14.10;97.10;;;;;;5047198;28;20430;-72
2022/10/02 11:22:23;;;;;;;5.23;3.50;;;14.20;97.10;;;;;;5043683;28;20420;-71
2022/10/02 11:24:49;;;;;;;10.20;3.37;;;14.30;97.00;;;;;;5049483;28;20430;-72
2022/10/02 11:27:24;;;;;;;4.63;3.17;;;14.40;97.10;;;;;;5050672;28;20415;-71
2022/10/02 11:30:08;;;;;;;4.87;2.90;;;14.40;96.80;;;;;;5049577;28;20430;-72
2022/10/02 11:32:58;;;;;;;3.90;3.17;;;14.40;96.80;;;;;;5048270;28;20475;-70
2022/10/02 11:35:47;;;;;;;3.73;2.27;;;14.40;96.40;;;;;;5044876;28;20504;-72
2022/10/02 11:38:41;;;;;;;3.80;2.20;;;14.30;95.60;;;;;;5045380;28;20407;-71
2022/10/02 11:41:15;;;;;;;2.30;2.10;;;14.40;95.80;;;;;;5046613;28;20442;-71
2022/10/02 11:44:21;;;;;;;3.47;2.10;;;14.30;95.20;;;;;;5044781;28;20827;-72
2022/10/02 11:46:52;;;;;;;3.57;2.60;;;14.30;95.40;;;;;;5017667;28;20426;-73
2022/10/02 11:49:40;;;;;;;2.53;2.00;;;14.40;95.60;;;;;;5043260;28;20434;-72
2022/10/02 11:52:32;;;;;;;2.37;2.20;;;14.30;95.60;;;;;;5044845;28;20431;-72
2022/10/02 11:55:07;;;;;;;1.33;1.30;;;14.30;95.60;;;;;;5049159;28;20443;-72
2022/10/02 11:58:03;;;;;;;1.87;1.40;;;14.10;95.00;;;;;;5048960;28;21032;-71
2022/10/02 12:00:35;;;;;;;1.60;1.40;;;14.10;95.30;;;;;;5048774;28;20449;-71
2022/10/02 12:03:35;;;;;;;1.70;1.70;;;14.00;95.50;;;;;;5047239;28;21044;-72
2022/10/02 12:06:14;;;;;;;1.90;1.70;;;14.10;95.50;;;;;;5044765;28;20430;-71
2022/10/02 12:08:58;;;;;;;2.83;1.70;;;14.20;95.70;;;;;;5050580;28;20415;-72
2022/10/02 12:12:11;;;;;;;1.30;1.20;;;14.30;95.80;;;;;;5050590;28;20514;-71
2022/10/02 12:14:46;;;;;;;1.90;1.33;;;14.50;95.00;;;;;;5025254;28;20450;-72
2022/10/02 12:17:25;;;;;;;1.30;1.20;;;14.50;94.50;;;;;;5049522;28;20403;-71
2022/10/02 12:29:11;;;;;;;3.03;1.20;;;14.80;93.60;;;;;;5044851;28;20937;-72
2022/10/02 12:31:50;;;;;;;2.20;1.30;;;14.50;93.90;;;;;;5049969;28;21067;-72
2022/10/02 12:34:47;;;;;;;1.50;1.13;;;14.50;94.20;;;;;;5047988;28;20524;-72
2022/10/02 12:37:44;;;;;;;2.10;1.43;;;14.30;94.50;;;;;;5050172;28;20441;-72
2022/10/02 12:40:22;;;;;;;1.50;1.27;;;14.20;95.40;;;;;;5049730;28;20911;-71
2022/10/02 12:42:56;;;;;;;1.37;1.10;;;14.30;96.00;;;;;;5048809;28;20576;-71
2022/10/02 12:45:30;;;;;;;2.23;1.37;;;14.30;96.00;;;;;;5050461;28;21056;-70
2022/10/02 12:48:17;;;;;;;2.47;1.60;;;14.10;96.00;;;;;;5045766;28;20455;-71
2022/10/02 12:50:58;;;;;;;2.07;1.20;;;14.10;96.70;;;;;;5048052;28;20431;-71
2022/10/02 12:53:52;;;;;;;2.37;2.00;;;14.10;97.10;;;;;;5047084;28;20858;-71
2022/10/02 12:56:33;;;;;;;2.07;1.40;;;14.30;97.30;;;;;;5045962;28;20573;-73
2022/10/02 12:59:03;;;;;;;6.13;1.73;;;14.30;97.40;;;;;;5050254;28;20412;-72
2022/10/02 13:01:50;;;;;;;1.80;1.40;;;14.30;97.30;;;;;;5052773;28;20431;-75
2022/10/02 13:04:21;;;;;;;3.40;2.03;;;14.30;97.30;;;;;;5052212;28;20811;-73
2022/10/02 13:07:28;;;;;;;3.80;2.40;;;14.30;97.40;;;;;;5046476;28;20422;-72
2022/10/02 13:10:21;;;;;;;1.80;1.37;;;14.30;97.40;;;;;;5048865;28;20642;-72
2022/10/02 13:13:12;;;;;;;1.80;1.30;;;14.30;97.40;;;;;;5043852;28;21456;-73
2022/10/02 13:16:01;;;;;;;2.53;1.70;;;14.40;97.40;;;;;;5049656;28;20419;-72
2022/10/02 13:18:32;;;;;;;2.60;1.63;;;14.20;97.20;;;;;;5048433;28;21028;-73
2022/10/02 13:21:11;;;;;;;2.43;1.50;;;14.00;97.10;;;;;;5044970;28;20422;-73
2022/10/02 13:24:18;;;;;;;2.60;1.67;;;13.90;97.60;;;;;;5047015;28;20473;-73
2022/10/02 13:26:56;;;;;;;2.80;1.63;;;13.90;97.80;;;;;;5037280;28;20435;-71
2022/10/02 13:29:57;;;;;;;3.23;1.43;;;13.80;98.10;;;;;;5044473;28;20423;-70
2022/10/02 13:32:41;;;;;;;3.00;1.60;;;13.70;97.70;;;;;;5004863;28;20433;-71
2022/10/02 13:35:09;;;;;;;1.60;1.40;;;13.80;97.80;;;;;;5002841;28;20519;-71
2022/10/02 13:38:11;;;;;;;2.00;1.60;;;13.80;97.30;;;;;;5007610;28;21169;-72
2022/10/02 13:40:48;;;;;;;1.93;1.57;;;13.90;97.50;;;;;;5005709;28;20424;-72
2022/10/02 13:43:22;;;;;;;2.30;1.70;;;14.00;97.40;;;;;;4989056;28;20476;-72
2022/10/02 13:45:56;;;;;;;80.77;41.83;;;14.10;97.40;;;;;;5005023;28;20421;-74
2022/10/02 13:48:33;;;;;;;54.00;29.53;;;14.20;97.40;;;;;;5003327;28;20448;-73
2022/10/02 13:51:07;;;;;;;2.20;1.60;;;14.30;97.40;;;;;;5007822;28;20432;-72
2022/10/02 13:53:42;;;;;;;1.60;1.10;;;14.10;96.90;;;;;;5012089;28;20550;-72
2022/10/02 13:56:19;;;;;;;1.43;1.00;;;13.90;96.60;;;;;;5013013;28;20436;-72
2022/10/02 13:58:56;;;;;;;1.13;1.00;;;13.90;96.80;;;;;;5010016;28;21163;-71
2022/10/02 14:01:47;;;;;;;1.47;1.00;;;13.90;96.20;;;;;;5011541;28;20437;-71
2022/10/02 14:04:26;;;;;;;2.00;0.90;;;14.10;96.20;;;;;;5008117;28;20567;-71
2022/10/02 14:07:27;;;;;;;1.40;0.90;;;14.00;95.40;;;;;;5011360;28;20432;-73
2022/10/02 14:10:28;;;;;;;2.83;0.90;;;13.70;95.60;;;;;;5045361;28;20457;-71